Elmore, Minnesota
Current Conditions -  °F | °C
As of 7:35 PM on Saturday 25 Oct 2014 (Local Time) from KFRM Reporting Station
Clear Clear  
Wind Chill: 52°   Ceiling: Unl
Heat Index: 52°   Visibility: 10mi
Dew Point: 21°   Wind: 6mph
Humidity: 30%   Direction: 310°NW
Pressure: 30.08"   Gusts: NA
Location:  43.5°N, 94.09°W
Report Text: KFRM 260035Z AUTO 31005KT 10SM CLR 11/M06 A3008 RMK AO1
Loading
Personal Weather Stations






























Interactive Weather Map
Tropical Storm Tracking
New forecast layout! Learn more

10-Day Weather Forecast

Advertisements
Track Severe Weather on mobile